Time;durP1;ratioP1;P1;durP2;ratioP2;P2;SDS_P1;SDS_P2;PMS_P1;PMS_P2;Temp;Humidity;BMP_temperature;BMP_pressure;BME280_temperature;BME280_humidity;BME280_pressure;Samples;Min_cycle;Max_cycle;Signal;HPM_P1;HPM_P2
2022/12/23 00:01:12;;;;;;;14.17;8.30;;;9.10;99.90;;;;;;5057303;28;20229;-80
2022/12/23 00:03:38;;;;;;;11.40;9.83;;;9.00;99.90;;;;;;5075504;28;20754;-81
2022/12/23 00:06:10;;;;;;;16.03;8.40;;;9.00;99.90;;;;;;5062323;28;20183;-80
2022/12/23 00:08:36;;;;;;;11.50;9.23;;;9.00;99.90;;;;;;5067221;28;20202;-79
2022/12/23 00:11:05;;;;;;;13.27;9.93;;;9.00;99.90;;;;;;5066975;28;20182;-80
2022/12/23 00:16:17;;;;;;;13.63;9.17;;;9.00;99.90;;;;;;5055907;28;20193;-80
2022/12/23 00:18:42;;;;;;;18.73;11.40;;;8.90;99.90;;;;;;5059716;28;20270;-79
2022/12/23 00:21:14;;;;;;;18.30;16.60;;;8.90;99.90;;;;;;5070970;28;20243;-79
2022/12/23 00:23:43;;;;;;;15.47;14.07;;;8.90;99.90;;;;;;5070723;28;20178;-80
2022/12/23 00:26:14;;;;;;;16.77;15.57;;;8.90;99.90;;;;;;5060905;28;20198;-79
2022/12/23 00:28:39;;;;;;;16.23;14.73;;;9.00;99.90;;;;;;5062787;28;20205;-80
2022/12/23 00:31:07;;;;;;;16.33;14.67;;;9.00;99.90;;;;;;5061128;28;20183;-79
2022/12/23 00:33:38;;;;;;;11.63;10.47;;;9.00;99.90;;;;;;5061128;28;20244;-79
2022/12/23 00:36:15;;;;;;;10.40;9.67;;;9.10;99.90;;;;;;5058611;28;20254;-80
2022/12/23 00:44:10;;;;;;;10.77;10.00;;;9.20;99.90;;;;;;5059238;28;20192;-80
2022/12/23 00:46:37;;;;;;;10.23;9.67;;;9.30;99.90;;;;;;5062839;28;20228;-80
2022/12/23 00:51:48;;;;;;;6.50;6.20;;;9.40;99.90;;;;;;5064744;28;20658;-79
2022/12/23 00:54:14;;;;;;;7.50;7.00;;;9.40;99.90;;;;;;5065167;28;20178;-80
2022/12/23 00:56:40;;;;;;;6.53;6.20;;;9.40;99.90;;;;;;5070037;28;20686;-80
2022/12/23 00:59:06;;;;;;;5.70;5.37;;;9.50;99.90;;;;;;5061665;28;20202;-79
2022/12/23 01:07:03;;;;;;;6.60;6.33;;;9.60;99.90;;;;;;5062611;28;20189;-79
2022/12/23 01:09:29;;;;;;;8.60;8.17;;;9.60;99.90;;;;;;5061984;28;20198;-78
2022/12/23 01:11:55;;;;;;;17.20;16.27;;;9.70;99.90;;;;;;5064866;28;20195;-80
2022/12/23 01:14:21;;;;;;;28.33;26.70;;;9.70;99.90;;;;;;5066264;28;20239;-79
2022/12/23 01:16:47;;;;;;;36.87;35.13;;;9.80;99.90;;;;;;5077281;28;20240;-79
2022/12/23 01:19:13;;;;;;;15.50;14.70;;;9.80;99.90;;;;;;5109239;22;20268;-78
2022/12/23 01:21:39;;;;;;;37.00;35.27;;;9.90;99.90;;;;;;5074351;28;20277;-78
2022/12/23 01:24:05;;;;;;;38.67;36.50;;;9.90;99.90;;;;;;5073831;28;20257;-78
2022/12/23 01:26:31;;;;;;;34.63;32.83;;;9.90;99.90;;;;;;5073460;28;20185;-77
2022/12/23 01:28:57;;;;;;;35.93;34.30;;;9.90;99.90;;;;;;5073856;28;20316;-79
2022/12/23 01:31:25;;;;;;;41.27;39.37;;;9.90;99.90;;;;;;5078711;28;20206;-78
2022/12/23 01:33:51;;;;;;;8.23;7.93;;;10.00;99.90;;;;;;5083771;28;20189;-78
2022/12/23 01:36:17;;;;;;;10.33;9.87;;;10.00;99.90;;;;;;5084112;28;20185;-79
2022/12/23 01:38:43;;;;;;;16.70;15.73;;;10.10;99.90;;;;;;5081175;28;20189;-79
2022/12/23 01:42:42;;;;;;;11.73;11.13;;;10.10;99.90;;;;;;5075565;28;20209;-78
2022/12/23 01:44:42;;;;;;;8.90;8.50;;;10.20;99.90;;;;;;5067040;28;20190;-79
2022/12/23 01:47:12;;;;;;;7.37;7.00;;;10.20;99.90;;;;;;5053924;28;20174;-79
2022/12/23 01:49:39;;;;;;;11.10;10.50;;;10.20;99.90;;;;;;5053091;28;20220;-78
2022/12/23 01:52:05;;;;;;;9.87;9.47;;;10.30;99.90;;;;;;5055850;28;20253;-79
2022/12/23 01:54:31;;;;;;;11.43;10.87;;;10.30;99.90;;;;;;5062528;28;20174;-79
2022/12/23 01:56:57;;;;;;;8.27;7.77;;;10.30;99.90;;;;;;5052816;28;20181;-78
2022/12/23 02:04:53;;;;;;;22.53;21.53;;;10.50;99.90;;;;;;5074225;28;20239;-78
2022/12/23 02:10:05;;;;;;;4.10;3.90;;;10.50;99.90;;;;;;5080118;28;20345;-79
2022/12/23 02:12:50;;;;;;;6.77;6.50;;;10.60;99.90;;;;;;5073170;28;20175;-79
2022/12/23 02:18:44;;;;;;;14.57;13.80;;;10.60;99.90;;;;;;5054281;28;20628;-79
2022/12/23 02:21:39;;;;;;;40.73;38.80;;;10.60;99.90;;;;;;5053253;28;20281;-79
2022/12/23 02:24:21;;;;;;;6.83;6.63;;;10.70;99.90;;;;;;5053087;28;20189;-79
2022/12/23 02:27:24;;;;;;;4.70;4.60;;;10.70;99.90;;;;;;5052442;28;20189;-78
2022/12/23 02:30:20;;;;;;;5.00;4.70;;;10.70;99.90;;;;;;5066468;28;20200;-78
2022/12/23 02:33:18;;;;;;;7.03;6.83;;;10.70;99.90;;;;;;5073057;28;20181;-77
2022/12/23 02:35:49;;;;;;;10.10;9.70;;;10.70;99.90;;;;;;5075118;28;20177;-79
2022/12/23 02:38:25;;;;;;;4.60;4.30;;;10.80;99.90;;;;;;5074732;28;20189;-79
2022/12/23 02:41:03;;;;;;;7.90;7.60;;;10.80;99.90;;;;;;5072477;28;20258;-79
2022/12/23 02:43:44;;;;;;;8.60;8.30;;;10.80;99.90;;;;;;5061412;28;20216;-79
2022/12/23 02:46:29;;;;;;;5.50;5.30;;;10.80;99.90;;;;;;5064510;28;20235;-79
2022/12/23 02:49:05;;;;;;;3.70;3.60;;;10.80;99.90;;;;;;5072015;28;20239;-80
2022/12/23 02:51:36;;;;;;;4.83;4.73;;;10.80;99.90;;;;;;5074248;28;20375;-79
2022/12/23 02:54:07;;;;;;;4.17;4.07;;;10.90;99.90;;;;;;5089712;28;20182;-78
2022/12/23 02:56:35;;;;;;;4.47;4.37;;;10.80;99.90;;;;;;5077938;28;20190;-78
2022/12/23 02:59:17;;;;;;;4.10;3.90;;;10.80;99.90;;;;;;5059328;28;20214;-77
2022/12/23 03:01:44;;;;;;;4.47;4.27;;;10.80;99.90;;;;;;5068580;28;20191;-81
2022/12/23 03:04:10;;;;;;;4.57;4.40;;;10.90;99.90;;;;;;5074068;28;20182;-80
2022/12/23 03:06:40;;;;;;;4.57;4.47;;;10.90;99.90;;;;;;5061126;28;20282;-79
2022/12/23 03:09:06;;;;;;;4.00;3.73;;;10.90;99.90;;;;;;5058581;28;20697;-78
2022/12/23 03:12:10;;;;;;;4.53;4.43;;;10.90;99.90;;;;;;5052087;28;20204;-77
2022/12/23 03:15:01;;;;;;;4.00;3.80;;;10.90;99.90;;;;;;5039280;28;20540;-77
2022/12/23 03:17:33;;;;;;;4.30;4.10;;;10.80;99.90;;;;;;5051533;28;20178;-77
2022/12/23 03:20:10;;;;;;;4.50;4.40;;;10.90;99.90;;;;;;5051464;28;20214;-77
2022/12/23 03:22:42;;;;;;;4.27;4.17;;;10.90;99.90;;;;;;5051473;28;20178;-79
2022/12/23 03:25:24;;;;;;;4.40;4.17;;;10.90;99.90;;;;;;5065906;28;20367;-78
2022/12/23 03:28:01;;;;;;;4.40;4.30;;;10.90;99.90;;;;;;5074889;28;20177;-78
2022/12/23 03:30:29;;;;;;;5.07;4.87;;;10.90;99.90;;;;;;5076617;28;20270;-77
2022/12/23 03:33:00;;;;;;;4.70;4.40;;;10.90;99.90;;;;;;5070771;28;20207;-78
2022/12/23 03:35:34;;;;;;;4.67;4.33;;;10.90;99.90;;;;;;5070474;28;20182;-78
2022/12/23 03:38:02;;;;;;;4.37;4.27;;;10.90;99.90;;;;;;5071383;28;20197;-77
2022/12/23 03:40:40;;;;;;;4.07;3.93;;;10.90;99.90;;;;;;5065491;28;20289;-77
2022/12/23 03:43:16;;;;;;;4.30;4.20;;;10.90;99.90;;;;;;5064881;28;20186;-78
2022/12/23 03:45:48;;;;;;;4.63;4.53;;;10.90;99.90;;;;;;5057213;28;20193;-79
2022/12/23 03:48:22;;;;;;;17.77;16.77;;;10.90;99.90;;;;;;5051662;28;20351;-79
2022/12/23 03:50:53;;;;;;;48.43;45.93;;;10.90;99.90;;;;;;5051620;28;20225;-79
2022/12/23 03:53:30;;;;;;;39.17;37.27;;;10.90;99.90;;;;;;5053115;28;20269;-79
2022/12/23 03:56:01;;;;;;;50.87;48.33;;;10.90;99.90;;;;;;5051532;28;20532;-79
2022/12/23 03:58:41;;;;;;;37.90;35.93;;;10.90;99.90;;;;;;5052222;28;20193;-77
2022/12/23 04:01:45;;;;;;;63.97;60.90;;;10.90;99.90;;;;;;5058031;28;20188;-80
2022/12/23 04:04:14;;;;;;;60.50;57.67;;;10.90;99.90;;;;;;5068020;28;20181;-79
2022/12/23 04:07:01;;;;;;;59.03;56.07;;;10.90;99.90;;;;;;5051556;28;20228;-79
2022/12/23 04:09:28;;;;;;;29.67;28.33;;;10.90;99.90;;;;;;5052225;28;20619;-79
2022/12/23 04:11:56;;;;;;;44.47;42.20;;;11.00;99.90;;;;;;5052019;28;20210;-79
2022/12/23 04:14:22;;;;;;;54.67;52.07;;;10.90;99.90;;;;;;5051833;28;20206;-78
2022/12/23 04:16:52;;;;;;;56.53;53.73;;;10.90;99.90;;;;;;5050577;28;20182;-78
2022/12/23 04:19:18;;;;;;;29.73;28.40;;;10.80;99.90;;;;;;5051835;28;20239;-79
2022/12/23 04:21:43;;;;;;;8.60;8.30;;;10.90;99.90;;;;;;5051957;28;20265;-80
2022/12/23 04:24:09;;;;;;;6.90;6.70;;;10.90;99.90;;;;;;5070932;28;20262;-78
2022/12/23 04:26:35;;;;;;;11.00;10.53;;;10.90;99.90;;;;;;5076198;28;20184;-77
2022/12/23 04:29:01;;;;;;;11.83;11.37;;;11.00;99.90;;;;;;5074588;28;20624;-78
2022/12/23 04:31:26;;;;;;;11.60;11.10;;;11.00;99.90;;;;;;5076063;28;20197;-78
2022/12/23 04:33:52;;;;;;;7.77;7.47;;;11.00;99.90;;;;;;5058159;28;20175;-79
2022/12/23 04:36:18;;;;;;;11.87;11.37;;;11.00;99.90;;;;;;5055688;28;20178;-77
2022/12/23 04:38:44;;;;;;;10.13;9.73;;;11.00;99.90;;;;;;5055522;28;20209;-78
2022/12/23 04:41:09;;;;;;;9.77;9.40;;;11.00;99.90;;;;;;5054613;28;20190;-80
2022/12/23 04:43:35;;;;;;;12.97;12.40;;;11.10;99.90;;;;;;5069974;28;20280;-80
2022/12/23 04:46:01;;;;;;;22.37;21.37;;;11.10;99.90;;;;;;5075127;28;20634;-78
2022/12/23 04:48:26;;;;;;;14.53;13.83;;;11.20;99.90;;;;;;5083924;28;20204;-79
2022/12/23 04:50:52;;;;;;;13.83;13.07;;;11.10;99.90;;;;;;5080244;28;20217;-80
2022/12/23 04:53:18;;;;;;;12.23;11.73;;;11.20;99.90;;;;;;5075453;28;20551;-80
2022/12/23 04:55:48;;;;;;;10.50;9.87;;;11.20;99.90;;;;;;5075412;28;20177;-80
2022/12/23 04:58:13;;;;;;;5.77;5.57;;;11.20;99.90;;;;;;5081600;28;20214;-78
2022/12/23 05:00:39;;;;;;;5.63;4.13;;;11.20;99.90;;;;;;5072790;28;20197;-79
2022/12/23 05:03:05;;;;;;;20.37;19.50;;;11.20;99.90;;;;;;5073447;28;20559;-80
2022/12/23 05:05:31;;;;;;;59.90;56.63;;;11.20;99.90;;;;;;5073419;28;20178;-78
2022/12/23 05:08:04;;;;;;;24.07;22.93;;;11.20;99.90;;;;;;5065966;28;20193;-79
2022/12/23 05:10:31;;;;;;;7.80;7.23;;;11.20;99.90;;;;;;5073287;28;20217;-78
2022/12/23 05:12:57;;;;;;;6.97;6.67;;;11.20;99.90;;;;;;5074487;28;20170;-79
2022/12/23 05:15:23;;;;;;;7.30;6.97;;;11.20;99.90;;;;;;5075976;28;20300;-79
2022/12/23 05:17:48;;;;;;;6.60;6.30;;;11.10;99.90;;;;;;5082435;28;20200;-78
2022/12/23 05:20:14;;;;;;;5.97;5.73;;;11.10;99.90;;;;;;5074305;28;20217;-78
2022/12/23 05:22:40;;;;;;;6.87;6.57;;;11.10;99.90;;;;;;5073879;28;20175;-78
2022/12/23 05:25:06;;;;;;;6.73;6.33;;;11.10;99.90;;;;;;5074145;28;20636;-78
2022/12/23 05:27:32;;;;;;;5.77;5.43;;;11.00;99.90;;;;;;5072514;28;20178;-78
2022/12/23 05:29:58;;;;;;;5.50;5.30;;;11.10;99.90;;;;;;5074327;28;20216;-79
2022/12/23 05:32:23;;;;;;;6.87;6.57;;;11.10;99.90;;;;;;5072110;28;20174;-78
2022/12/23 05:34:49;;;;;;;29.70;28.30;;;11.10;99.90;;;;;;5053615;28;20205;-78
2022/12/23 05:37:15;;;;;;;50.17;47.77;;;11.10;99.90;;;;;;5052533;28;20231;-78
2022/12/23 05:39:41;;;;;;;6.77;6.23;;;11.20;99.90;;;;;;5052612;28;20214;-78
2022/12/23 05:42:06;;;;;;;9.13;8.77;;;11.20;99.90;;;;;;5054166;28;20183;-78
2022/12/23 05:44:32;;;;;;;5.70;5.50;;;11.30;99.90;;;;;;5052153;28;20213;-78
2022/12/23 05:46:58;;;;;;;23.63;22.50;;;11.30;99.90;;;;;;5051708;28;20241;-79
2022/12/23 05:49:25;;;;;;;57.40;54.70;;;11.30;99.90;;;;;;5052726;28;20210;-78
2022/12/23 05:51:51;;;;;;;59.53;56.40;;;11.30;99.90;;;;;;5052816;28;20289;-77
2022/12/23 05:54:17;;;;;;;16.07;15.33;;;11.20;99.90;;;;;;5069914;28;20264;-78
2022/12/23 05:56:42;;;;;;;6.27;6.07;;;11.30;99.90;;;;;;5077367;28;20178;-78
2022/12/23 05:59:08;;;;;;;6.77;6.57;;;11.30;99.90;;;;;;5085112;28;20197;-77
2022/12/23 06:01:34;;;;;;;6.90;6.70;;;11.20;99.90;;;;;;5077206;28;20205;-79
2022/12/23 06:04:00;;;;;;;6.43;6.10;;;11.20;99.90;;;;;;5072119;28;20240;-78
2022/12/23 06:06:26;;;;;;;7.30;7.00;;;11.30;99.90;;;;;;5072496;28;20177;-78
2022/12/23 06:08:52;;;;;;;6.77;6.47;;;11.30;99.90;;;;;;5071072;28;20204;-78
2022/12/23 06:11:18;;;;;;;7.80;7.43;;;11.30;99.90;;;;;;5072745;28;20296;-64
2022/12/23 06:13:43;;;;;;;9.17;8.70;;;11.20;99.90;;;;;;5060306;28;20178;-64
2022/12/23 06:16:09;;;;;;;8.27;7.97;;;11.30;99.90;;;;;;5052291;28;20182;-64
2022/12/23 06:18:35;;;;;;;7.00;6.70;;;11.30;99.90;;;;;;5052108;28;20533;-64
2022/12/23 06:21:01;;;;;;;6.73;6.43;;;11.40;99.90;;;;;;5052252;28;20217;-63
2022/12/23 06:23:27;;;;;;;6.43;6.23;;;11.40;99.90;;;;;;5061489;28;20184;-64
2022/12/23 06:26:02;;;;;;;7.27;6.97;;;11.40;99.90;;;;;;5072543;28;20181;-64
2022/12/23 06:28:29;;;;;;;7.53;7.27;;;11.40;99.90;;;;;;5071933;28;20206;-64
2022/12/23 06:30:56;;;;;;;8.43;8.13;;;11.40;99.90;;;;;;5071926;28;20206;-69
2022/12/23 06:33:22;;;;;;;22.07;20.77;;;11.40;99.90;;;;;;5061731;28;20182;-69
2022/12/23 06:35:48;;;;;;;35.90;34.20;;;11.40;99.90;;;;;;5050894;28;20182;-69
2022/12/23 06:38:14;;;;;;;41.43;39.43;;;11.30;99.90;;;;;;5051431;28;20214;-69
2022/12/23 06:40:40;;;;;;;9.37;8.97;;;11.20;99.90;;;;;;5051564;28;20226;-69
2022/12/23 06:43:06;;;;;;;5.47;5.17;;;11.20;99.90;;;;;;5055068;28;20186;-69
2022/12/23 06:45:32;;;;;;;3.60;3.50;;;11.20;99.90;;;;;;5058204;28;20185;-69
2022/12/23 06:47:57;;;;;;;4.30;4.20;;;11.10;99.90;;;;;;5070306;28;20246;-69
2022/12/23 06:50:23;;;;;;;6.30;6.00;;;11.10;99.90;;;;;;5069686;28;20206;-69
2022/12/23 06:52:49;;;;;;;5.83;5.60;;;11.10;99.90;;;;;;5068788;28;20177;-69
2022/12/23 06:55:16;;;;;;;6.87;6.47;;;11.10;99.90;;;;;;5071978;28;20271;-69
2022/12/23 06:57:42;;;;;;;7.27;6.87;;;11.10;99.90;;;;;;5071184;28;20650;-68
2022/12/23 07:00:08;;;;;;;21.27;20.27;;;11.10;99.90;;;;;;5071247;28;20262;-69
2022/12/23 07:02:34;;;;;;;28.97;27.60;;;11.10;99.90;;;;;;5068306;28;20192;-69
2022/12/23 07:05:00;;;;;;;36.67;34.80;;;11.10;99.90;;;;;;5049539;28;20191;-69
2022/12/23 07:07:26;;;;;;;42.30;40.27;;;11.10;99.90;;;;;;5055060;28;20189;-69
2022/12/23 07:09:51;;;;;;;34.03;32.37;;;11.10;99.90;;;;;;5051228;28;20272;-68
2022/12/23 07:12:18;;;;;;;42.70;40.67;;;11.10;99.90;;;;;;5062628;28;20260;-68
2022/12/23 07:14:43;;;;;;;62.20;59.13;;;11.10;99.90;;;;;;5069304;28;20188;-68
2022/12/23 07:17:09;;;;;;;77.87;74.17;;;11.10;99.90;;;;;;5070855;28;20181;-67
2022/12/23 07:19:35;;;;;;;80.20;76.27;;;11.00;99.90;;;;;;5069542;28;20757;-68
2022/12/23 07:22:02;;;;;;;84.03;79.80;;;11.10;99.90;;;;;;5070930;28;20181;-67
2022/12/23 07:24:27;;;;;;;76.00;72.23;;;11.00;99.90;;;;;;5064848;28;20547;-67
2022/12/23 07:26:54;;;;;;;78.43;74.63;;;11.10;99.90;;;;;;5050493;28;20181;-67
2022/12/23 07:29:20;;;;;;;80.87;77.00;;;11.10;99.90;;;;;;5050519;28;20198;-67
2022/12/23 07:31:46;;;;;;;81.93;77.97;;;11.00;99.90;;;;;;5050957;28;20190;-68
2022/12/23 07:34:12;;;;;;;66.87;63.47;;;11.10;99.90;;;;;;5063986;28;20251;-69
2022/12/23 07:36:37;;;;;;;40.10;38.10;;;11.10;99.90;;;;;;5070755;28;20188;-69
2022/12/23 07:39:03;;;;;;;46.23;43.83;;;11.10;99.90;;;;;;5071097;28;20276;-69
2022/12/23 07:41:29;;;;;;;55.87;53.13;;;11.00;99.90;;;;;;5070967;28;20276;-69
2022/12/23 07:43:55;;;;;;;54.53;51.33;;;11.00;99.90;;;;;;5058598;28;20982;-69
2022/12/23 07:46:20;;;;;;;67.00;63.53;;;11.10;99.90;;;;;;5050221;28;20178;-69
2022/12/23 07:48:46;;;;;;;71.30;67.70;;;11.10;99.90;;;;;;5049794;28;20273;-69
2022/12/23 07:51:12;;;;;;;62.37;59.17;;;11.10;99.90;;;;;;5050101;28;20296;-69
2022/12/23 07:53:38;;;;;;;64.97;61.67;;;11.10;99.90;;;;;;5058218;28;20271;-69
2022/12/23 07:56:04;;;;;;;52.60;49.73;;;11.10;99.90;;;;;;5070710;28;20180;-67
2022/12/23 07:58:30;;;;;;;42.87;40.63;;;11.20;99.90;;;;;;5069616;28;20250;-66
2022/12/23 08:01:01;;;;;;;20.37;19.30;;;11.20;99.90;;;;;;5070440;28;20207;-66
2022/12/23 08:03:28;;;;;;;11.73;10.77;;;11.20;99.90;;;;;;5069921;28;20196;-66
2022/12/23 08:06:07;;;;;;;7.93;7.37;;;11.20;99.90;;;;;;5069676;28;20205;-65
2022/12/23 08:08:34;;;;;;;7.90;7.43;;;11.20;99.90;;;;;;5069060;28;20672;-66
2022/12/23 08:11:03;;;;;;;10.90;9.93;;;11.30;99.90;;;;;;5070201;28;20217;-66
2022/12/23 08:13:30;;;;;;;15.13;14.23;;;11.20;99.90;;;;;;5063257;28;20186;-66
2022/12/23 08:15:58;;;;;;;14.13;13.13;;;11.30;99.90;;;;;;5050509;28;20190;-66
2022/12/23 08:18:25;;;;;;;18.90;17.60;;;11.30;99.90;;;;;;5049022;28;20181;-65
2022/12/23 08:20:58;;;;;;;17.90;16.90;;;11.30;99.90;;;;;;5050028;28;20235;-66
2022/12/23 08:23:26;;;;;;;18.97;17.77;;;11.30;99.90;;;;;;5056090;28;20207;-65
2022/12/23 08:26:01;;;;;;;20.93;19.43;;;11.30;99.90;;;;;;5060473;28;20178;-66
2022/12/23 08:28:27;;;;;;;29.07;25.93;;;11.40;99.90;;;;;;5049704;28;20185;-65
2022/12/23 08:30:53;;;;;;;28.20;21.90;;;11.40;99.90;;;;;;5050240;28;20215;-65
2022/12/23 08:33:19;;;;;;;17.77;15.63;;;11.40;99.90;;;;;;5054915;28;20185;-65
2022/12/23 08:35:45;;;;;;;23.53;21.67;;;11.40;99.90;;;;;;5069979;28;20669;-65
2022/12/23 08:38:11;;;;;;;82.50;77.67;;;11.50;99.90;;;;;;5068409;28;20185;-65
2022/12/23 08:40:40;;;;;;;28.70;26.87;;;11.50;99.90;;;;;;5057723;28;20214;-66
2022/12/23 08:43:07;;;;;;;71.90;67.63;;;11.50;99.90;;;;;;5052378;28;20237;-65
2022/12/23 08:45:37;;;;;;;93.17;88.03;;;11.50;99.90;;;;;;5069983;28;20273;-65
2022/12/23 08:48:06;;;;;;;124.53;117.47;;;11.50;99.90;;;;;;5071830;28;20280;-65
2022/12/23 08:50:37;;;;;;;97.43;91.77;;;11.50;99.90;;;;;;5072398;28;20201;-65
2022/12/23 08:53:04;;;;;;;440.97;413.97;;;11.50;99.90;;;;;;5069738;28;20618;-65
2022/12/23 08:55:29;;;;;;;124.97;117.97;;;11.50;99.90;;;;;;5069856;28;20190;-65
2022/12/23 08:57:55;;;;;;;34.93;32.77;;;11.60;99.90;;;;;;5070004;28;20520;-65
2022/12/23 09:00:21;;;;;;;27.67;25.67;;;11.60;99.90;;;;;;5070124;28;20215;-66
2022/12/23 09:02:47;;;;;;;20.93;18.67;;;11.60;99.90;;;;;;5068242;28;20181;-65
2022/12/23 09:05:13;;;;;;;21.53;17.97;;;11.70;99.90;;;;;;5069651;28;20186;-65
2022/12/23 09:07:41;;;;;;;19.30;15.13;;;11.70;99.90;;;;;;5068446;28;20189;-65
2022/12/23 09:10:07;;;;;;;38.70;35.70;;;11.70;99.90;;;;;;5070010;28;20560;-65
2022/12/23 09:12:33;;;;;;;26.13;24.17;;;11.70;99.90;;;;;;5072368;28;20732;-66
2022/12/23 09:14:59;;;;;;;13.70;12.37;;;11.60;99.90;;;;;;5055490;28;20347;-66
2022/12/23 09:17:25;;;;;;;13.70;11.20;;;11.60;99.90;;;;;;5053087;28;20264;-66
2022/12/23 09:19:50;;;;;;;16.60;10.77;;;11.60;99.90;;;;;;5053156;28;20225;-66
2022/12/23 09:22:16;;;;;;;11.37;10.47;;;11.60;99.90;;;;;;5053635;28;20209;-66
2022/12/23 09:24:42;;;;;;;14.90;12.67;;;11.60;99.90;;;;;;5068169;28;20177;-66
2022/12/23 09:27:08;;;;;;;34.07;31.90;;;11.70;99.90;;;;;;5073634;28;20658;-72
2022/12/23 09:29:33;;;;;;;91.10;86.17;;;11.70;99.90;;;;;;5073397;28;20216;-66
2022/12/23 09:31:59;;;;;;;111.37;105.30;;;11.70;99.90;;;;;;5073177;28;20750;-66
2022/12/23 09:34:25;;;;;;;120.53;114.07;;;11.80;99.90;;;;;;5067240;28;20178;-66
2022/12/23 09:36:51;;;;;;;210.13;198.73;;;11.80;99.90;;;;;;5072965;28;20182;-66
2022/12/23 09:39:17;;;;;;;206.80;194.73;;;11.80;99.90;;;;;;5073080;28;20197;-67
2022/12/23 09:42:01;;;;;;;148.80;141.03;;;11.90;99.90;;;;;;5072939;28;20205;-66
2022/12/23 09:44:58;;;;;;;159.43;150.53;;;12.00;99.90;;;;;;5072448;28;20182;-66
2022/12/23 09:47:27;;;;;;;205.83;194.53;;;12.00;99.90;;;;;;5052525;28;20190;-66
2022/12/23 09:50:05;;;;;;;146.03;138.33;;;12.10;99.90;;;;;;5053091;28;20304;-66
2022/12/23 09:52:36;;;;;;;126.70;119.87;;;12.10;99.90;;;;;;5052237;28;20179;-66
2022/12/23 09:55:02;;;;;;;123.80;117.27;;;12.10;99.90;;;;;;5069645;28;20266;-66
2022/12/23 09:57:55;;;;;;;102.33;96.70;;;12.20;99.90;;;;;;5072508;28;20268;-66
2022/12/23 10:00:22;;;;;;;111.50;105.50;;;12.20;99.90;;;;;;5072376;28;20317;-66
2022/12/23 10:03:07;;;;;;;116.37;109.87;;;12.20;99.90;;;;;;5072780;28;20185;-66
2022/12/23 10:05:51;;;;;;;135.97;128.10;;;12.10;99.90;;;;;;5052656;28;20267;-66
2022/12/23 10:08:23;;;;;;;137.17;129.23;;;12.10;99.90;;;;;;5052059;28;20608;-66
2022/12/23 10:11:19;;;;;;;129.33;122.47;;;12.20;99.90;;;;;;5052218;28;20683;-67
2022/12/23 10:14:00;;;;;;;116.33;110.23;;;12.20;99.90;;;;;;5057392;28;20305;-67
2022/12/23 10:16:33;;;;;;;102.93;96.93;;;12.20;99.90;;;;;;5072141;28;20265;-67
2022/12/23 10:19:11;;;;;;;104.53;99.10;;;12.20;99.90;;;;;;5071758;28;20363;-67
2022/12/23 10:21:55;;;;;;;97.03;91.57;;;12.20;99.90;;;;;;5071484;28;20220;-67
2022/12/23 10:24:24;;;;;;;81.07;76.37;;;12.20;99.90;;;;;;5059916;28;20190;-67
2022/12/23 10:27:00;;;;;;;92.53;87.03;;;12.20;99.90;;;;;;5070543;28;20182;-68
2022/12/23 10:29:30;;;;;;;108.97;103.40;;;12.20;99.90;;;;;;5072644;28;20229;-68
2022/12/23 10:32:24;;;;;;;99.30;94.07;;;12.20;99.90;;;;;;5071263;28;20272;-67
2022/12/23 10:35:21;;;;;;;78.93;74.73;;;12.10;99.90;;;;;;5070506;28;20185;-67
2022/12/23 10:38:01;;;;;;;104.47;98.53;;;12.10;99.90;;;;;;5071773;28;20205;-66
2022/12/23 10:40:47;;;;;;;134.80;127.03;;;12.10;99.90;;;;;;5072036;28;20201;-66
2022/12/23 10:43:31;;;;;;;133.50;126.37;;;12.10;99.90;;;;;;5070060;28;20268;-67
2022/12/23 10:46:42;;;;;;;88.30;83.57;;;12.20;99.90;;;;;;5052111;28;20276;-66
2022/12/23 10:49:25;;;;;;;35.83;33.80;;;12.20;99.90;;;;;;5051874;28;20205;-66
2022/12/23 10:51:58;;;;;;;16.60;12.73;;;12.20;99.90;;;;;;5051993;28;20252;-66
2022/12/23 10:54:35;;;;;;;18.67;17.27;;;12.20;99.90;;;;;;5053127;28;20194;-66
2022/12/23 10:57:02;;;;;;;12.17;10.97;;;12.20;99.90;;;;;;5065802;28;20184;-67
2022/12/23 10:59:31;;;;;;;16.27;15.30;;;12.30;99.90;;;;;;5070610;28;20246;-66
2022/12/23 11:02:18;;;;;;;21.93;20.60;;;12.30;99.90;;;;;;5070421;28;20181;-66
2022/12/23 11:04:48;;;;;;;19.00;17.70;;;12.30;99.90;;;;;;5058649;28;20181;-66
2022/12/23 11:07:24;;;;;;;13.03;12.10;;;12.30;99.90;;;;;;5051406;28;20193;-67
2022/12/23 11:09:56;;;;;;;17.53;16.53;;;12.30;99.90;;;;;;5051866;28;20213;-68
2022/12/23 11:12:40;;;;;;;23.63;22.23;;;12.40;99.90;;;;;;5051721;28;20213;-67
2022/12/23 11:15:36;;;;;;;19.03;17.93;;;12.40;99.90;;;;;;5067101;28;20314;-67
2022/12/23 11:18:06;;;;;;;14.63;13.60;;;12.40;99.90;;;;;;5071175;28;20204;-67
2022/12/23 11:20:35;;;;;;;19.03;17.47;;;12.40;99.90;;;;;;5071224;28;20219;-67
2022/12/23 11:23:03;;;;;;;16.07;15.03;;;12.40;99.90;;;;;;5071047;28;20185;-66
2022/12/23 11:25:42;;;;;;;31.70;29.77;;;12.40;99.90;;;;;;5070516;28;20670;-67
2022/12/23 11:28:15;;;;;;;26.10;24.53;;;12.30;99.90;;;;;;5063218;28;20209;-71
2022/12/23 11:30:53;;;;;;;22.47;20.33;;;12.30;99.90;;;;;;5063346;28;20213;-68
2022/12/23 11:33:26;;;;;;;22.00;20.20;;;12.30;99.90;;;;;;5064123;28;20189;-66
2022/12/23 11:36:11;;;;;;;17.40;15.93;;;12.30;99.90;;;;;;5064409;28;20228;-66
2022/12/23 11:38:48;;;;;;;19.83;18.27;;;12.30;99.90;;;;;;5070656;28;20174;-67
2022/12/23 11:41:23;;;;;;;38.17;35.53;;;12.30;99.90;;;;;;5070791;28;20181;-67
2022/12/23 11:44:14;;;;;;;73.53;69.00;;;12.30;99.90;;;;;;5069405;28;20177;-67
2022/12/23 11:46:39;;;;;;;22.77;21.27;;;12.30;99.90;;;;;;5070575;28;20239;-67
2022/12/23 11:49:17;;;;;;;25.57;23.67;;;12.30;99.90;;;;;;5070075;28;20201;-67
2022/12/23 11:51:58;;;;;;;34.93;32.50;;;12.30;99.90;;;;;;5070457;28;20209;-67
2022/12/23 11:54:24;;;;;;;31.13;28.70;;;12.30;99.90;;;;;;5069297;28;20181;-68
2022/12/23 11:56:52;;;;;;;49.77;46.53;;;12.30;99.90;;;;;;5068553;28;20914;-67
2022/12/23 11:59:28;;;;;;;72.57;68.57;;;12.30;99.90;;;;;;5067621;28;20201;-68
2022/12/23 12:01:58;;;;;;;89.27;84.43;;;12.30;99.90;;;;;;5070618;28;20188;-68
2022/12/23 12:04:25;;;;;;;195.50;184.60;;;12.30;99.90;;;;;;5070183;28;20273;-67
2022/12/23 12:06:52;;;;;;;154.77;146.00;;;12.20;99.90;;;;;;5070332;28;20192;-68
2022/12/23 12:09:19;;;;;;;179.83;169.53;;;12.20;99.90;;;;;;5070528;28;20239;-68
2022/12/23 12:12:14;;;;;;;239.27;225.23;;;12.20;99.90;;;;;;5070552;28;20209;-68
2022/12/23 12:14:44;;;;;;;183.87;173.30;;;12.10;99.90;;;;;;5053553;28;20669;-68
2022/12/23 12:17:22;;;;;;;148.80;140.57;;;12.10;99.90;;;;;;5049172;28;20603;-68
2022/12/23 12:19:56;;;;;;;147.83;139.47;;;12.10;99.90;;;;;;5050378;28;20213;-68
2022/12/23 12:22:34;;;;;;;107.27;101.13;;;12.10;99.90;;;;;;5050463;28;20250;-67
2022/12/23 12:25:10;;;;;;;150.07;141.80;;;12.10;99.90;;;;;;5063517;28;20553;-67
2022/12/23 12:27:39;;;;;;;77.17;72.80;;;12.20;99.90;;;;;;5052035;28;20609;-68
2022/12/23 12:30:10;;;;;;;18.47;17.17;;;12.20;99.90;;;;;;5050884;28;20222;-68
2022/12/23 12:32:55;;;;;;;94.57;89.50;;;12.20;99.90;;;;;;5050629;28;20182;-67
2022/12/23 12:35:37;;;;;;;159.53;150.43;;;12.20;99.90;;;;;;5066185;28;20185;-68
2022/12/23 12:38:33;;;;;;;208.23;196.57;;;12.20;99.90;;;;;;5069918;28;20529;-68
2022/12/23 12:41:06;;;;;;;150.73;142.77;;;12.30;99.90;;;;;;5069428;28;20221;-67
2022/12/23 12:43:38;;;;;;;74.77;70.47;;;12.30;99.90;;;;;;5069436;28;20181;-67
2022/12/23 12:46:28;;;;;;;40.90;37.97;;;12.30;99.90;;;;;;5052446;28;20217;-67
2022/12/23 12:49:03;;;;;;;128.07;121.20;;;12.20;99.90;;;;;;5053740;28;20182;-66
2022/12/23 12:51:41;;;;;;;206.23;195.07;;;12.30;99.90;;;;;;5052917;28;20301;-67
2022/12/23 12:54:18;;;;;;;275.23;260.20;;;12.30;99.90;;;;;;5059364;28;20180;-67
2022/12/23 12:56:50;;;;;;;201.30;189.77;;;12.30;99.90;;;;;;5075135;28;20184;-66
2022/12/23 12:59:19;;;;;;;125.30;117.97;;;12.30;99.90;;;;;;5074236;28;20199;-67
2022/12/23 13:01:57;;;;;;;105.67;100.17;;;12.30;99.90;;;;;;5074131;28;20178;-66
2022/12/23 13:04:37;;;;;;;195.63;184.90;;;12.30;99.90;;;;;;5066403;28;20186;-66
2022/12/23 13:07:18;;;;;;;223.93;211.73;;;12.30;99.90;;;;;;5053192;28;20271;-67
2022/12/23 13:09:55;;;;;;;269.43;254.93;;;12.30;99.90;;;;;;5052664;28;20225;-67
2022/12/23 13:12:26;;;;;;;232.57;220.50;;;12.30;99.90;;;;;;5053823;28;20256;-67
2022/12/23 13:15:34;;;;;;;225.10;212.53;;;12.30;99.90;;;;;;5064546;28;20734;-67
2022/12/23 13:18:36;;;;;;;202.10;191.17;;;12.30;99.90;;;;;;5073325;28;20185;-67
2022/12/23 13:21:12;;;;;;;190.93;180.93;;;12.30;99.90;;;;;;5104494;23;20622;-68